Impacts TAF Board INFO
FOR SITUATIONAL AWARENESS. NOT TO BE USED FOR FLIGHT PLANNING PURPOSES.
IDs:

KJFK - New York/Kennedy Int, NY, US

Issued at 2136 UTC 19 Jun 2018
Updated at 2159 UTC 19 Jun 2018
Potential Impact None Slight Moderate High
Time2151Z 19/22Z 19/23Z 20/00Z 20/01Z 20/02Z 20/03Z 20/04Z 20/05Z 20/06Z 20/07Z 20/08Z 20/09Z 20/10Z>>
Type OBS PRVL PRVL PRVL PRVL PRVL PRVL PRVL PRVL PRVL PRVL PRVL PRVL PRVL
VIS 10 >6 >6 >6 >6 >6 >6 >6 >6 >6 >6 >6 >6 >6
CIG -- -- -- -- -- -- -- -- -- -- -- -- 250 250
Cover FEW SCT FEW FEW FEW FEW FEW FEW FEW FEW FEW FEW BKN BKN
FltCat VFR VFR VFR VFR VFR VFR VFR VFR VFR VFR VFR VFR VFR VFR
WX -- -- -- -- -- -- -- -- -- -- -- -- -- --
WDir 190 350 20 20 20 20 20 20 20 20 20 20 40 40
WSpd 10 9 8 8 8 8 8 8 8 8 8 8 5 5
WGst -- -- -- -- -- -- -- -- -- -- -- -- -- --

Raw TAF
KJFK 192136Z 1922/2024 35009KT P6SM FEW060 SCT250
  FM192300 02008KT P6SM FEW250
  FM200900 04005KT P6SM BKN250
  FM201600 14006KT P6SM SCT050 BKN150


Raw METAR
KJFK 192151Z 19010KT 10SM FEW075 FEW250 28/16 A2979 RMK AO2 SLP087 T02830161
KJFK 192051Z 34010KT 10SM FEW065 SCT250 32/13 A2979 RMK AO2 SLP087 T03170133 55005
KJFK 191951Z 02012G16KT 10SM FEW060 SCT250 31/15 A2978 RMK AO2 SLP083 T03110150
KJFK 191851Z 36011G19KT 10SM FEW060 SCT250 31/14 A2979 RMK AO2 SLP087 T03110139

METAR Board
Radar Display
Forecast Discussion

FOR SITUATIONAL AWARENESS. NOT TO BE USED FOR FLIGHT PLANNING PURPOSES.